createdAt,value
2023-05-24T00:00:22.353Z,98.40
2023-05-24T00:02:49.958Z,94.30
2023-05-24T00:05:18.984Z,88.30
2023-05-24T00:07:46.289Z,93.90
2023-05-24T00:10:13.633Z,96.70
2023-05-24T00:12:40.983Z,99.90
2023-05-24T00:15:08.846Z,91.70
2023-05-24T00:17:41.170Z,99.90
2023-05-24T00:20:12.587Z,99.90
2023-05-24T00:22:41.199Z,99.90
2023-05-24T00:25:09.193Z,99.90
2023-05-24T00:27:37.396Z,99.90
2023-05-24T00:30:06.285Z,99.90
2023-05-24T00:32:33.820Z,99.90
2023-05-24T00:35:01.217Z,99.90
2023-05-24T00:37:29.585Z,99.90
2023-05-24T00:39:57.005Z,98.00
2023-05-24T00:42:24.371Z,74.20
2023-05-24T00:44:51.720Z,88.90
2023-05-24T00:47:19.079Z,88.70
2023-05-24T00:49:47.018Z,84.30
2023-05-24T00:52:14.587Z,90.50
2023-05-24T00:54:42.093Z,88.30
2023-05-24T00:57:09.718Z,92.90
2023-05-24T00:59:37.198Z,94.70
2023-05-24T01:02:04.793Z,93.90
2023-05-24T01:04:33.219Z,96.20
2023-05-24T01:07:17.102Z,99.90
2023-05-24T01:09:53.451Z,99.90
2023-05-24T01:12:27.789Z,99.90
2023-05-24T01:15:28.214Z,99.90
2023-05-24T01:18:08.006Z,99.90
2023-05-24T01:20:38.904Z,99.90
2023-05-24T01:23:21.208Z,99.90
2023-05-24T01:26:24.172Z,99.90
2023-05-24T01:28:52.306Z,99.90
2023-05-24T01:31:21.801Z,99.90
2023-05-24T01:33:49.037Z,99.90
2023-05-24T01:36:16.556Z,99.90
2023-05-24T01:38:44.167Z,99.90
2023-05-24T01:41:21.874Z,99.90
2023-05-24T01:44:14.477Z,99.90
2023-05-24T01:46:41.938Z,99.90
2023-05-24T01:49:23.390Z,99.90
2023-05-24T01:52:09.043Z,99.90
2023-05-24T01:54:40.837Z,99.90
2023-05-24T01:57:10.543Z,99.90
2023-05-24T01:59:42.079Z,99.90
2023-05-24T02:02:11.229Z,99.90
2023-05-24T02:04:38.584Z,99.90
2023-05-24T02:07:06.509Z,99.90
2023-05-24T02:09:33.823Z,99.90
2023-05-24T02:12:01.084Z,99.90
2023-05-24T02:14:28.375Z,99.90
2023-05-24T02:16:58.854Z,99.90
2023-05-24T02:19:26.518Z,99.90
2023-05-24T02:21:54.638Z,99.90
2023-05-24T02:24:22.022Z,99.90
2023-05-24T02:26:49.318Z,99.90
2023-05-24T02:29:16.638Z,99.90
2023-05-24T02:31:44.049Z,99.90
2023-05-24T02:34:11.355Z,99.90
2023-05-24T02:36:38.739Z,99.90
2023-05-24T02:39:06.324Z,99.90
2023-05-24T02:41:33.573Z,99.90
2023-05-24T02:44:00.849Z,99.90
2023-05-24T02:46:28.144Z,99.90
2023-05-24T02:48:55.400Z,99.90
2023-05-24T02:51:22.674Z,99.90
2023-05-24T02:53:50.267Z,99.90
2023-05-24T02:56:17.994Z,99.90
2023-05-24T02:58:46.161Z,99.90
2023-05-24T03:01:13.692Z,99.90
2023-05-24T03:03:41.212Z,99.90
2023-05-24T03:06:08.547Z,99.90
2023-05-24T03:08:37.505Z,99.90
2023-05-24T03:11:04.796Z,99.90
2023-05-24T03:13:32.045Z,99.90
2023-05-24T03:15:59.525Z,99.90
2023-05-24T03:18:26.873Z,99.90
2023-05-24T03:20:54.114Z,99.90
2023-05-24T03:23:21.371Z,99.90
2023-05-24T03:25:48.808Z,99.90
2023-05-24T03:28:16.247Z,99.90
2023-05-24T03:30:43.778Z,99.90
2023-05-24T03:33:11.266Z,99.90
2023-05-24T03:35:38.534Z,99.90
2023-05-24T03:38:05.867Z,99.90
2023-05-24T03:40:33.909Z,99.90
2023-05-24T03:43:03.012Z,99.90
2023-05-24T03:45:39.159Z,99.90
2023-05-24T03:48:07.517Z,99.90
2023-05-24T03:50:35.560Z,99.90
2023-05-24T03:53:02.946Z,99.90
2023-05-24T03:55:30.570Z,99.90
2023-05-24T03:57:57.889Z,99.90
2023-05-24T04:00:25.240Z,99.90
2023-05-24T04:02:53.247Z,99.90
2023-05-24T04:05:20.726Z,99.90
2023-05-24T04:07:48.387Z,99.90
2023-05-24T04:10:15.764Z,99.90
2023-05-24T04:12:45.600Z,99.90
2023-05-24T04:15:31.886Z,99.90
2023-05-24T04:18:00.682Z,99.90
2023-05-24T04:20:29.394Z,99.90
2023-05-24T04:22:56.773Z,99.90
2023-05-24T04:25:24.107Z,99.90
2023-05-24T04:27:51.346Z,99.90
2023-05-24T04:30:18.812Z,99.90
2023-05-24T04:32:46.146Z,99.90
2023-05-24T04:35:14.316Z,99.90
2023-05-24T04:37:41.592Z,99.90
2023-05-24T04:40:09.565Z,99.90
2023-05-24T04:42:36.932Z,99.90
2023-05-24T04:45:04.430Z,99.90
2023-05-24T04:47:31.791Z,99.90
2023-05-24T04:49:59.172Z,99.90
2023-05-24T04:52:26.438Z,99.90
2023-05-24T04:54:55.278Z,99.90
2023-05-24T04:57:22.579Z,99.90
2023-05-24T04:59:49.926Z,99.90
2023-05-24T05:02:17.610Z,99.90
2023-05-24T05:04:44.899Z,99.90
2023-05-24T05:07:12.181Z,99.90
2023-05-24T05:09:39.400Z,99.90
2023-05-24T05:12:07.340Z,99.90
2023-05-24T05:14:34.733Z,99.90
2023-05-24T05:17:02.031Z,99.90
2023-05-24T05:19:29.253Z,99.90
2023-05-24T05:21:56.534Z,99.90
2023-05-24T05:24:23.785Z,99.90
2023-05-24T05:26:51.083Z,99.90
2023-05-24T05:29:18.410Z,99.90
2023-05-24T05:31:46.998Z,99.90
2023-05-24T05:34:14.283Z,99.90
2023-05-24T05:36:42.647Z,99.90
2023-05-24T05:39:10.244Z,99.90
2023-05-24T05:41:39.687Z,99.90
2023-05-24T05:44:07.226Z,99.90
2023-05-24T05:46:34.610Z,99.90
2023-05-24T05:49:02.136Z,99.90
2023-05-24T05:51:29.469Z,99.90
2023-05-24T05:53:56.976Z,99.90
2023-05-24T05:56:24.352Z,99.90
2023-05-24T05:58:51.588Z,99.90
2023-05-24T06:01:18.843Z,99.90
2023-05-24T06:03:46.409Z,99.90
2023-05-24T06:06:13.775Z,99.90
2023-05-24T06:08:41.306Z,99.90
2023-05-24T06:11:08.594Z,99.90
2023-05-24T06:13:35.890Z,99.90
2023-05-24T06:16:03.251Z,99.90
2023-05-24T06:18:32.580Z,98.90
2023-05-24T06:20:59.865Z,99.30
2023-05-24T06:23:27.106Z,98.40
2023-05-24T06:25:54.758Z,96.70
2023-05-24T06:28:22.834Z,98.70
2023-05-24T06:30:50.098Z,99.90
2023-05-24T06:33:17.470Z,99.90
2023-05-24T06:35:44.703Z,99.70
2023-05-24T06:38:11.928Z,98.20
2023-05-24T06:40:39.237Z,97.60
2023-05-24T06:43:06.562Z,92.70
2023-05-24T06:45:33.825Z,83.20
2023-05-24T06:48:01.142Z,84.30
2023-05-24T06:50:28.598Z,80.00
2023-05-24T06:52:55.927Z,85.70
2023-05-24T06:55:23.297Z,78.30
2023-05-24T06:57:50.641Z,74.20
2023-05-24T07:00:18.822Z,72.20
2023-05-24T07:02:46.183Z,70.50
2023-05-24T07:05:13.491Z,55.70
2023-05-24T07:07:44.170Z,57.80
2023-05-24T07:10:12.384Z,57.00
2023-05-24T07:12:39.983Z,59.60
2023-05-24T07:15:10.042Z,58.60
2023-05-24T07:17:37.519Z,54.60
2023-05-24T07:20:10.633Z,52.10
2023-05-24T07:22:38.020Z,53.60
2023-05-24T07:25:05.868Z,55.90
2023-05-24T07:27:33.184Z,58.80
2023-05-24T07:30:00.552Z,56.80
2023-05-24T07:32:27.952Z,54.30
2023-05-24T07:34:55.347Z,50.00
2023-05-24T07:37:24.680Z,53.50
2023-05-24T07:39:52.876Z,55.00
2023-05-24T07:42:21.654Z,55.50
2023-05-24T07:44:48.938Z,53.80
2023-05-24T07:47:16.231Z,56.00
2023-05-24T07:49:43.473Z,55.10
2023-05-24T07:52:10.741Z,55.90
2023-05-24T07:54:38.044Z,56.60
2023-05-24T07:57:08.651Z,54.90
2023-05-24T07:59:36.566Z,58.00
2023-05-24T08:02:05.789Z,57.20
2023-05-24T08:04:35.917Z,61.10
2023-05-24T08:07:04.163Z,58.80
2023-05-24T08:09:35.816Z,60.10
2023-05-24T08:12:06.203Z,62.50
2023-05-24T08:14:33.671Z,57.90
2023-05-24T08:17:01.140Z,56.90
2023-05-24T08:19:28.868Z,62.70
2023-05-24T08:21:57.703Z,60.10
2023-05-24T08:24:25.037Z,56.60
2023-05-24T08:26:52.957Z,60.60
2023-05-24T08:29:20.212Z,58.30
2023-05-24T08:31:47.719Z,62.40
2023-05-24T08:34:15.658Z,62.40
2023-05-24T08:36:44.020Z,65.10
2023-05-24T08:39:11.259Z,58.00
2023-05-24T08:41:39.030Z,60.80
2023-05-24T08:44:07.630Z,61.20
2023-05-24T08:46:39.253Z,55.60
2023-05-24T08:49:09.137Z,54.80
2023-05-24T08:51:38.802Z,56.50
2023-05-24T08:54:07.674Z,57.90
2023-05-24T08:56:35.110Z,60.00
2023-05-24T08:59:02.379Z,65.20
2023-05-24T09:01:32.297Z,58.30
2023-05-24T09:04:02.526Z,65.30
2023-05-24T09:06:30.061Z,65.30
2023-05-24T09:08:59.723Z,62.80
2023-05-24T09:11:28.474Z,65.50
2023-05-24T09:13:57.266Z,67.70
2023-05-24T09:16:24.687Z,74.30
2023-05-24T09:18:51.928Z,72.00
2023-05-24T09:21:19.952Z,74.70
2023-05-24T09:23:48.606Z,75.10
2023-05-24T09:26:15.989Z,68.80
2023-05-24T09:28:44.332Z,78.00
2023-05-24T09:31:12.522Z,71.30
2023-05-24T09:33:40.277Z,66.00
2023-05-24T09:36:07.951Z,63.70
2023-05-24T09:38:36.806Z,65.80
2023-05-24T09:41:06.798Z,64.50
2023-05-24T09:43:46.279Z,62.40
2023-05-24T09:46:18.820Z,65.00
2023-05-24T09:48:59.659Z,68.40
2023-05-24T09:51:27.186Z,69.20
2023-05-24T09:53:57.960Z,66.00
2023-05-24T09:56:25.601Z,70.20
2023-05-24T09:58:54.986Z,66.60
2023-05-24T10:01:24.614Z,62.60
2023-05-24T10:03:57.676Z,66.10
2023-05-24T10:06:25.753Z,61.00
2023-05-24T10:08:54.492Z,65.60
2023-05-24T10:11:21.756Z,67.30
2023-05-24T10:13:49.866Z,66.60
2023-05-24T10:16:17.400Z,71.20
2023-05-24T10:18:44.851Z,77.30
2023-05-24T10:21:12.812Z,89.40
2023-05-24T10:23:42.120Z,92.30
2023-05-24T10:26:13.997Z,99.10
2023-05-24T10:28:48.895Z,97.60
2023-05-24T10:31:24.190Z,97.30
2023-05-24T10:33:52.089Z,99.90
2023-05-24T10:36:19.565Z,99.90
2023-05-24T10:38:47.177Z,99.90
2023-05-24T10:41:14.619Z,99.90
2023-05-24T10:44:00.961Z,99.90
2023-05-24T10:46:34.201Z,99.90
2023-05-24T10:49:02.758Z,99.90
2023-05-24T10:51:33.819Z,99.90
2023-05-24T10:54:20.206Z,99.90
2023-05-24T10:56:50.174Z,88.20
2023-05-24T10:59:24.361Z,92.10
2023-05-24T11:01:59.275Z,88.50
2023-05-24T11:04:30.672Z,81.50
2023-05-24T11:07:05.765Z,78.20
2023-05-24T11:09:33.735Z,71.10
2023-05-24T11:12:07.577Z,77.20
2023-05-24T11:14:42.508Z,85.90
2023-05-24T11:17:10.708Z,91.50
2023-05-24T11:19:47.220Z,88.60
2023-05-24T11:22:15.328Z,91.90
2023-05-24T11:24:43.578Z,91.80
2023-05-24T11:27:13.174Z,93.90
2023-05-24T11:29:45.524Z,91.90
2023-05-24T11:32:21.205Z,85.70
2023-05-24T11:34:49.778Z,75.90
2023-05-24T11:37:18.795Z,75.10
2023-05-24T11:39:54.322Z,81.90
2023-05-24T11:42:23.593Z,80.10
2023-05-24T11:44:51.741Z,70.60
2023-05-24T11:47:22.029Z,66.30
2023-05-24T11:50:08.095Z,65.40
2023-05-24T11:52:53.627Z,62.40
2023-05-24T11:55:41.412Z,58.70
2023-05-24T11:58:52.164Z,65.00
2023-05-24T12:01:27.522Z,55.00
2023-05-24T12:03:55.571Z,59.00
2023-05-24T12:06:23.404Z,75.80
2023-05-24T12:08:50.924Z,75.30
2023-05-24T12:11:18.318Z,85.50
2023-05-24T12:13:45.840Z,82.80
2023-05-24T12:16:14.536Z,85.80
2023-05-24T12:18:51.403Z,86.50
2023-05-24T12:21:31.811Z,88.90
2023-05-24T12:24:25.977Z,88.50
2023-05-24T12:26:57.639Z,83.20
2023-05-24T12:29:25.039Z,83.50
2023-05-24T12:31:53.520Z,76.80
2023-05-24T12:34:21.552Z,79.40
2023-05-24T12:36:48.983Z,80.90
2023-05-24T12:39:21.332Z,77.80
2023-05-24T12:41:55.994Z,85.60
2023-05-24T12:44:42.041Z,85.60
2023-05-24T12:47:09.935Z,90.60
2023-05-24T12:49:37.535Z,83.90
2023-05-24T12:52:05.249Z,80.10
2023-05-24T12:54:32.879Z,82.50
2023-05-24T12:57:01.289Z,80.50
2023-05-24T12:59:29.077Z,75.60
2023-05-24T13:01:56.701Z,72.90
2023-05-24T13:04:26.468Z,78.60
2023-05-24T13:06:54.064Z,98.20
2023-05-24T13:09:23.750Z,84.40
2023-05-24T13:11:52.704Z,85.90
2023-05-24T13:14:20.583Z,84.60
2023-05-24T13:16:49.002Z,88.40
2023-05-24T13:19:17.227Z,88.20
2023-05-24T13:21:45.250Z,84.80
2023-05-24T13:24:15.897Z,75.40
2023-05-24T13:26:43.822Z,82.40
2023-05-24T13:31:41.915Z,94.00
2023-05-24T13:34:11.210Z,80.90
2023-05-24T13:36:39.409Z,90.00
2023-05-24T13:41:40.818Z,85.70
2023-05-24T13:44:08.685Z,77.10
2023-05-24T13:46:36.894Z,89.70
2023-05-24T13:49:05.086Z,91.00
2023-05-24T13:51:33.146Z,91.30
2023-05-24T13:54:01.705Z,90.00
2023-05-24T13:56:32.958Z,90.50
2023-05-24T13:59:02.770Z,94.20
2023-05-24T14:01:31.341Z,96.90
2023-05-24T14:03:58.946Z,98.00
2023-05-24T14:06:26.285Z,99.90
2023-05-24T14:08:53.698Z,99.90
2023-05-24T14:11:22.477Z,99.90
2023-05-24T14:16:20.115Z,94.20
2023-05-24T14:18:49.310Z,96.60
2023-05-24T14:21:21.741Z,94.00
2023-05-24T14:23:50.386Z,99.90
2023-05-24T14:26:19.111Z,99.90
2023-05-24T14:28:46.743Z,99.90
2023-05-24T14:31:14.037Z,99.90
2023-05-24T14:33:41.377Z,99.90
2023-05-24T14:36:09.255Z,99.90
2023-05-24T14:38:36.648Z,99.90
2023-05-24T14:41:04.042Z,99.90
2023-05-24T14:43:31.377Z,99.90
2023-05-24T14:45:58.734Z,99.90
2023-05-24T14:48:26.106Z,99.90
2023-05-24T14:50:53.425Z,99.90
2023-05-24T14:53:20.692Z,99.90
2023-05-24T14:55:48.248Z,99.90
2023-05-24T14:58:15.685Z,99.90
2023-05-24T15:00:43.902Z,99.90
2023-05-24T15:03:13.107Z,99.90
2023-05-24T15:05:42.671Z,99.90
2023-05-24T15:08:13.952Z,99.90
2023-05-24T15:10:43.850Z,99.90
2023-05-24T15:13:11.487Z,99.90
2023-05-24T15:15:39.085Z,99.90
2023-05-24T15:18:07.132Z,99.90
2023-05-24T15:20:35.776Z,99.90
2023-05-24T15:23:04.018Z,99.90
2023-05-24T15:25:31.299Z,99.90
2023-05-24T15:27:58.670Z,99.90
2023-05-24T15:30:25.926Z,99.90
2023-05-24T15:32:53.195Z,99.90
2023-05-24T15:35:21.033Z,99.90
2023-05-24T15:37:48.402Z,99.90
2023-05-24T15:40:16.277Z,99.90
2023-05-24T15:42:43.840Z,98.80
2023-05-24T15:45:11.739Z,99.90
2023-05-24T15:47:40.497Z,94.20
2023-05-24T15:50:09.026Z,96.20
2023-05-24T15:52:36.659Z,91.70
2023-05-24T15:55:07.736Z,91.80
2023-05-24T15:57:35.306Z,94.80
2023-05-24T16:00:02.628Z,94.90
2023-05-24T16:02:30.852Z,90.40
2023-05-24T16:04:58.229Z,88.20
2023-05-24T16:07:25.546Z,83.90
2023-05-24T16:09:52.995Z,80.80
2023-05-24T16:12:20.629Z,70.40
2023-05-24T16:14:48.169Z,73.70
2023-05-24T16:17:15.753Z,76.00
2023-05-24T16:19:43.290Z,78.60
2023-05-24T16:22:10.673Z,82.40
2023-05-24T16:24:38.414Z,80.60
2023-05-24T16:27:06.960Z,65.10
2023-05-24T16:29:35.127Z,67.60
2023-05-24T16:32:04.246Z,76.40
2023-05-24T16:34:38.740Z,63.30
2023-05-24T16:37:13.291Z,57.90
2023-05-24T16:39:40.661Z,62.60
2023-05-24T16:42:08.529Z,66.30
2023-05-24T16:44:35.858Z,63.80
2023-05-24T16:47:04.323Z,63.50
2023-05-24T16:49:31.687Z,66.70
2023-05-24T16:51:59.083Z,61.20
2023-05-24T16:54:26.605Z,61.60
2023-05-24T16:56:55.073Z,57.10
2023-05-24T16:59:23.445Z,60.60
2023-05-24T17:01:51.682Z,64.30
2023-05-24T17:04:19.175Z,64.10
2023-05-24T17:06:46.500Z,66.30
2023-05-24T17:09:13.972Z,68.50
2023-05-24T17:11:41.309Z,65.90
2023-05-24T17:14:08.606Z,64.80
2023-05-24T17:16:36.244Z,72.70
2023-05-24T17:19:03.816Z,63.00
2023-05-24T17:21:31.556Z,65.80
2023-05-24T17:24:00.301Z,67.00
2023-05-24T17:26:27.898Z,59.60
2023-05-24T17:28:55.182Z,75.10
2023-05-24T17:31:22.583Z,77.60
2023-05-24T17:33:49.969Z,70.10
2023-05-24T17:36:17.198Z,70.50
2023-05-24T17:38:44.582Z,79.00
2023-05-24T17:41:11.868Z,81.90
2023-05-24T17:43:41.181Z,85.20
2023-05-24T17:46:09.703Z,76.80
2023-05-24T17:48:38.524Z,74.30
2023-05-24T17:51:07.604Z,70.40
2023-05-24T17:53:38.307Z,76.30
2023-05-24T17:56:06.434Z,88.90
2023-05-24T17:58:36.902Z,89.80
2023-05-24T18:01:07.044Z,85.70
2023-05-24T18:03:37.121Z,89.70
2023-05-24T18:06:07.902Z,96.30
2023-05-24T18:08:38.113Z,99.90
2023-05-24T18:11:10.518Z,99.90
2023-05-24T18:13:39.229Z,99.90
2023-05-24T18:16:07.373Z,99.90
2023-05-24T18:18:34.831Z,99.90
2023-05-24T18:21:02.224Z,98.60
2023-05-24T18:23:29.764Z,97.50
2023-05-24T18:26:00.455Z,97.60
2023-05-24T18:28:30.352Z,99.80
2023-05-24T18:30:57.695Z,99.90
2023-05-24T18:33:25.149Z,99.90
2023-05-24T18:35:52.688Z,99.90
2023-05-24T18:38:20.002Z,98.20
2023-05-24T18:40:47.384Z,99.90
2023-05-24T18:43:14.782Z,99.90
2023-05-24T18:45:42.409Z,99.90
2023-05-24T18:48:09.890Z,99.90
2023-05-24T18:50:37.199Z,99.90
2023-05-24T18:53:04.594Z,99.90
2023-05-24T18:55:31.892Z,99.90
2023-05-24T18:57:59.223Z,99.90
2023-05-24T19:00:26.908Z,99.90
2023-05-24T19:02:55.615Z,99.90
2023-05-24T19:05:23.084Z,99.90
2023-05-24T19:07:50.496Z,99.90
2023-05-24T19:10:17.995Z,99.90
2023-05-24T19:12:45.382Z,99.90
2023-05-24T19:15:12.686Z,99.90
2023-05-24T19:17:40.283Z,99.90
2023-05-24T19:20:08.167Z,99.90
2023-05-24T19:22:35.964Z,99.90
2023-05-24T19:25:03.865Z,99.90
2023-05-24T19:27:31.369Z,99.90
2023-05-24T19:30:01.370Z,99.90
2023-05-24T19:32:29.122Z,99.90
2023-05-24T19:34:59.829Z,99.90
2023-05-24T19:37:27.474Z,99.90
2023-05-24T19:39:54.801Z,99.90
2023-05-24T19:42:22.045Z,99.90
2023-05-24T19:44:49.239Z,99.90
2023-05-24T19:47:16.559Z,99.90
2023-05-24T19:49:43.809Z,99.90
2023-05-24T19:52:11.170Z,99.90
2023-05-24T19:54:38.588Z,99.90
2023-05-24T19:57:06.362Z,99.90
2023-05-24T19:59:34.437Z,99.90
2023-05-24T20:02:01.834Z,99.90
2023-05-24T20:04:29.216Z,99.90
2023-05-24T20:06:56.420Z,99.90
2023-05-24T20:09:23.789Z,99.90
2023-05-24T20:11:51.492Z,99.90
2023-05-24T20:14:18.741Z,99.90
2023-05-24T20:16:46.140Z,99.90
2023-05-24T20:19:13.590Z,99.90
2023-05-24T20:21:40.831Z,99.90
2023-05-24T20:24:08.104Z,99.90
2023-05-24T20:26:37.026Z,99.90
2023-05-24T20:29:04.852Z,99.90
2023-05-24T20:31:32.275Z,99.90
2023-05-24T20:33:59.747Z,99.90
2023-05-24T20:36:27.035Z,99.90
2023-05-24T20:38:54.313Z,99.90
2023-05-24T20:41:21.532Z,99.90
2023-05-24T20:43:51.019Z,99.90
2023-05-24T20:46:18.361Z,99.90
2023-05-24T20:48:46.434Z,99.90
2023-05-24T20:51:13.750Z,99.90
2023-05-24T20:53:41.013Z,99.90
2023-05-24T20:56:08.428Z,99.90
2023-05-24T20:58:35.778Z,99.90
2023-05-24T21:01:03.102Z,99.90
2023-05-24T21:03:30.598Z,99.90
2023-05-24T21:05:59.480Z,99.90
2023-05-24T21:08:26.775Z,99.90
2023-05-24T21:10:55.744Z,99.90
2023-05-24T21:13:24.322Z,99.90
2023-05-24T21:15:51.686Z,99.90
2023-05-24T21:18:19.125Z,99.90
2023-05-24T21:20:46.585Z,99.90
2023-05-24T21:23:14.007Z,99.90
2023-05-24T21:25:41.489Z,99.90
2023-05-24T21:28:10.308Z,99.90
2023-05-24T21:30:37.635Z,99.90
2023-05-24T21:33:04.967Z,99.90
2023-05-24T21:35:32.736Z,99.90
2023-05-24T21:38:00.178Z,99.90
2023-05-24T21:40:27.428Z,99.90
2023-05-24T21:42:54.649Z,99.90
2023-05-24T21:45:21.916Z,99.90
2023-05-24T21:47:49.134Z,99.90
2023-05-24T21:50:16.424Z,99.90
2023-05-24T21:52:43.688Z,99.90
2023-05-24T21:55:11.136Z,99.90
2023-05-24T21:57:38.392Z,99.90
2023-05-24T22:00:06.319Z,99.90
2023-05-24T22:02:33.649Z,99.90
2023-05-24T22:05:01.534Z,99.90
2023-05-24T22:07:28.922Z,99.90
2023-05-24T22:09:56.258Z,99.90
2023-05-24T22:12:23.579Z,99.90
2023-05-24T22:14:50.888Z,99.90
2023-05-24T22:17:19.294Z,99.90
2023-05-24T22:19:48.061Z,99.90
2023-05-24T22:22:19.699Z,99.90
2023-05-24T22:24:49.948Z,99.90
2023-05-24T22:27:17.199Z,99.90
2023-05-24T22:29:44.469Z,99.90
2023-05-24T22:32:11.905Z,99.90
2023-05-24T22:34:39.696Z,99.90
2023-05-24T22:37:07.709Z,99.90
2023-05-24T22:39:34.975Z,99.90
2023-05-24T22:42:02.298Z,99.90
2023-05-24T22:44:29.731Z,99.90
2023-05-24T22:46:56.980Z,99.90
2023-05-24T22:49:24.262Z,99.90
2023-05-24T22:51:53.467Z,99.90
2023-05-24T22:54:20.812Z,99.90
2023-05-24T22:56:48.263Z,99.90
2023-05-24T22:59:15.724Z,99.90
2023-05-24T23:01:44.801Z,99.90
2023-05-24T23:04:21.279Z,99.90
2023-05-24T23:06:52.879Z,99.90
2023-05-24T23:09:34.956Z,99.90
2023-05-24T23:12:07.639Z,99.90
2023-05-24T23:14:39.952Z,99.90
2023-05-24T23:17:13.448Z,99.90
2023-05-24T23:19:42.751Z,99.90
2023-05-24T23:22:18.353Z,99.90
2023-05-24T23:24:47.531Z,99.90
2023-05-24T23:27:15.098Z,99.90
2023-05-24T23:29:42.403Z,99.90
2023-05-24T23:32:10.607Z,99.90
2023-05-24T23:34:38.195Z,99.90
2023-05-24T23:37:06.051Z,99.90
2023-05-24T23:39:33.338Z,99.90
2023-05-24T23:42:02.274Z,99.90
2023-05-24T23:44:29.964Z,99.90
2023-05-24T23:46:57.407Z,99.90
2023-05-24T23:49:25.849Z,99.90
2023-05-24T23:51:53.170Z,99.90
2023-05-24T23:54:20.551Z,99.90
2023-05-24T23:56:48.567Z,99.90
2023-05-24T23:59:17.460Z,99.90
